Time;durP1;ratioP1;P1;durP2;ratioP2;P2;SDS_P1;SDS_P2;PMS_P1;PMS_P2;Temp;Humidity;BMP_temperature;BMP_pressure;BME280_temperature;BME280_humidity;BME280_pressure;Samples;Min_cycle;Max_cycle;Signal;HPM_P1;HPM_P2
2023/07/07 00:01:07;;;;;;;8.18;4.45;;;;;;;;;;4372492;32;318598;-85
2023/07/07 00:03:34;;;;;;;9.45;4.20;;;;;;;;;;4380831;32;355850;-85
2023/07/07 00:06:01;;;;;;;6.32;3.85;;;;;;;;;;4372384;32;317593;-85
2023/07/07 00:08:29;;;;;;;8.68;4.47;;;;;;;;;;4381790;32;317096;-85
2023/07/07 00:10:58;;;;;;;8.75;3.90;;;;;;;;;;4372254;32;317350;-86
2023/07/07 00:13:25;;;;;;;9.32;3.65;;;;;;;;;;4380848;32;343876;-89
2023/07/07 00:15:59;;;;;;;10.05;4.20;;;;;;;;;;4373629;32;317448;-88
2023/07/07 00:18:27;;;;;;;5.35;4.18;;;;;;;;;;4376158;32;317053;-88
2023/07/07 00:20:55;;;;;;;7.25;4.30;;;;;;;;;;4363900;32;316826;-88
2023/07/07 00:23:24;;;;;;;7.45;4.70;;;;;;;;;;4376952;32;316867;-88
2023/07/07 00:26:03;;;;;;;17.92;5.15;;;;;;;;;;4358116;32;317216;-89
2023/07/07 00:28:30;;;;;;;7.12;4.47;;;;;;;;;;4352862;32;317902;-90
2023/07/07 00:30:57;;;;;;;7.82;4.47;;;;;;;;;;4355982;32;357806;-88
2023/07/07 00:33:24;;;;;;;9.02;5.05;;;;;;;;;;4366919;32;316661;-89
2023/07/07 00:35:53;;;;;;;12.90;5.28;;;;;;;;;;4358290;32;317193;-88
2023/07/07 00:38:21;;;;;;;10.32;5.28;;;;;;;;;;4366727;32;318463;-88
2023/07/07 00:40:48;;;;;;;10.05;5.18;;;;;;;;;;4356780;32;317671;-88
2023/07/07 00:43:18;;;;;;;10.75;4.90;;;;;;;;;;4372667;32;317578;-89
2023/07/07 00:45:46;;;;;;;14.10;5.07;;;;;;;;;;4355434;32;343267;-91
2023/07/07 00:48:15;;;;;;;8.50;5.43;;;;;;;;;;4368163;32;317493;-88
2023/07/07 00:50:46;;;;;;;5.00;4.40;;;;;;;;;;4353983;32;316013;-88
2023/07/07 00:53:14;;;;;;;14.63;5.15;;;;;;;;;;4355071;32;415638;-89
2023/07/07 00:55:44;;;;;;;8.77;5.53;;;;;;;;;;4367739;32;318236;-89
2023/07/07 00:58:14;;;;;;;10.73;5.20;;;;;;;;;;4361491;32;416066;-90
2023/07/07 01:00:46;;;;;;;9.20;4.95;;;;;;;;;;4382579;32;317807;-89
2023/07/07 01:03:19;;;;;;;9.48;4.72;;;;;;;;;;4361998;32;416934;-89
2023/07/07 01:05:47;;;;;;;5.78;4.70;;;;;;;;;;4371614;32;316760;-90
2023/07/07 01:08:14;;;;;;;16.52;6.35;;;;;;;;;;4381520;32;317360;-91
2023/07/07 01:10:41;;;;;;;8.27;4.87;;;;;;;;;;4381442;32;318215;-89
2023/07/07 01:13:08;;;;;;;15.73;5.22;;;;;;;;;;4353523;32;416713;-88
2023/07/07 01:15:43;;;;;;;14.87;5.12;;;;;;;;;;4367153;32;318239;-88
2023/07/07 01:18:24;;;;;;;11.65;4.57;;;;;;;;;;4354782;32;417503;-91
2023/07/07 01:21:01;;;;;;;8.63;5.07;;;;;;;;;;4356009;32;318229;-89
2023/07/07 01:24:05;;;;;;;6.57;4.93;;;;;;;;;;4382548;32;317654;-89
2023/07/07 01:26:53;;;;;;;9.50;5.80;;;;;;;;;;4367697;32;418825;-88
2023/07/07 01:29:40;;;;;;;9.48;5.40;;;;;;;;;;4364825;32;417561;-89
2023/07/07 01:32:13;;;;;;;9.88;5.30;;;;;;;;;;4369595;32;416318;-88
2023/07/07 01:34:39;;;;;;;9.73;4.60;;;;;;;;;;4382401;32;317238;-88
2023/07/07 01:37:06;;;;;;;13.82;4.57;;;;;;;;;;4372186;32;317047;-88
2023/07/07 01:39:35;;;;;;;14.57;5.45;;;;;;;;;;4381014;32;317577;-89
2023/07/07 01:42:08;;;;;;;7.30;4.87;;;;;;;;;;4371869;32;318369;-88
2023/07/07 01:44:42;;;;;;;10.13;5.60;;;;;;;;;;4381012;32;316665;-89
2023/07/07 01:47:16;;;;;;;12.68;5.65;;;;;;;;;;4369468;32;416970;-89
2023/07/07 01:49:47;;;;;;;7.03;4.28;;;;;;;;;;4372175;32;317947;-89
2023/07/07 01:52:19;;;;;;;5.22;4.53;;;;;;;;;;4380771;32;317290;-89
2023/07/07 01:54:50;;;;;;;9.68;5.72;;;;;;;;;;4371866;32;316676;-93
2023/07/07 01:57:18;;;;;;;13.48;6.05;;;;;;;;;;4380389;32;317232;-88
2023/07/07 01:59:46;;;;;;;12.57;5.37;;;;;;;;;;4370575;32;318231;-88
2023/07/07 02:02:15;;;;;;;7.68;5.18;;;;;;;;;;4381878;32;318515;-89
2023/07/07 02:04:43;;;;;;;13.60;5.60;;;;;;;;;;4380841;32;317358;-88
2023/07/07 02:07:10;;;;;;;11.50;5.00;;;;;;;;;;4381526;32;318079;-88
2023/07/07 02:09:37;;;;;;;7.40;4.28;;;;;;;;;;4381745;32;318694;-89
2023/07/07 02:12:04;;;;;;;13.68;5.25;;;;;;;;;;4371164;32;316474;-89
2023/07/07 02:14:31;;;;;;;8.10;4.82;;;;;;;;;;4381569;32;317766;-89
2023/07/07 02:16:57;;;;;;;5.60;4.20;;;;;;;;;;4371800;32;317560;-89
2023/07/07 02:19:27;;;;;;;9.23;4.53;;;;;;;;;;4380558;32;317207;-89
2023/07/07 02:21:53;;;;;;;9.25;5.30;;;;;;;;;;4371235;32;317287;-89
2023/07/07 02:24:20;;;;;;;8.38;4.95;;;;;;;;;;4380853;32;317227;-89
2023/07/07 02:26:49;;;;;;;10.02;5.65;;;;;;;;;;4370135;32;317177;-89
2023/07/07 02:29:16;;;;;;;12.25;5.95;;;;;;;;;;4380199;32;317698;-89
2023/07/07 02:31:43;;;;;;;7.93;5.47;;;;;;;;;;4370136;32;318071;-89
2023/07/07 02:34:10;;;;;;;10.85;5.22;;;;;;;;;;4380166;32;320693;-88
2023/07/07 02:36:38;;;;;;;7.62;5.72;;;;;;;;;;4381284;32;317380;-89
2023/07/07 02:39:05;;;;;;;8.40;4.93;;;;;;;;;;4370423;32;317148;-88
2023/07/07 02:41:32;;;;;;;11.55;5.43;;;;;;;;;;4379869;32;316653;-90
2023/07/07 02:43:59;;;;;;;10.63;5.90;;;;;;;;;;4370128;32;318325;-88
2023/07/07 02:46:26;;;;;;;6.72;5.43;;;;;;;;;;4380189;32;318218;-88
2023/07/07 02:48:53;;;;;;;12.95;5.75;;;;;;;;;;4370245;32;316663;-88
2023/07/07 02:51:20;;;;;;;11.88;6.87;;;;;;;;;;4379818;32;317634;-89
2023/07/07 02:53:48;;;;;;;13.48;6.43;;;;;;;;;;4364172;32;317555;-89
2023/07/07 02:56:15;;;;;;;9.23;5.68;;;;;;;;;;4379591;32;317550;-89
2023/07/07 02:58:41;;;;;;;6.97;5.70;;;;;;;;;;4367656;32;317156;-89
2023/07/07 03:01:10;;;;;;;13.55;6.50;;;;;;;;;;4371216;32;316647;-88
2023/07/07 03:03:39;;;;;;;20.67;7.18;;;;;;;;;;4380937;32;318186;-88
2023/07/07 03:06:08;;;;;;;13.38;5.53;;;;;;;;;;4371417;32;318087;-88
2023/07/07 03:08:35;;;;;;;6.03;5.03;;;;;;;;;;4380813;32;317690;-88
2023/07/07 03:11:09;;;;;;;6.03;5.25;;;;;;;;;;4370911;32;317110;-88
2023/07/07 03:13:36;;;;;;;10.88;5.25;;;;;;;;;;4368319;32;317282;-88
2023/07/07 03:16:11;;;;;;;5.18;4.65;;;;;;;;;;4363743;32;318163;-88
2023/07/07 03:18:37;;;;;;;9.90;6.20;;;;;;;;;;4381175;32;316942;-88
2023/07/07 03:21:04;;;;;;;10.02;5.53;;;;;;;;;;4371169;32;317035;-89
2023/07/07 03:23:31;;;;;;;6.75;5.37;;;;;;;;;;4378856;32;317670;-88
2023/07/07 03:26:08;;;;;;;14.90;5.47;;;;;;;;;;4369590;32;317103;-89
2023/07/07 03:28:34;;;;;;;7.60;5.57;;;;;;;;;;4379783;32;318106;-88
2023/07/07 03:31:11;;;;;;;7.47;4.90;;;;;;;;;;4370301;32;317221;-88
2023/07/07 03:33:40;;;;;;;8.60;5.00;;;;;;;;;;4373400;32;317074;-88
2023/07/07 03:36:07;;;;;;;11.88;5.40;;;;;;;;;;4370487;32;317126;-89
2023/07/07 03:38:34;;;;;;;7.45;5.25;;;;;;;;;;4365970;32;318456;-88
2023/07/07 03:41:00;;;;;;;5.30;4.67;;;;;;;;;;4369062;32;333398;-89
2023/07/07 03:43:33;;;;;;;10.50;5.50;;;;;;;;;;4380637;32;316456;-90
2023/07/07 03:46:00;;;;;;;15.93;4.95;;;;;;;;;;4372461;32;318195;-88
2023/07/07 03:48:27;;;;;;;6.50;4.72;;;;;;;;;;4368758;32;317833;-88
2023/07/07 03:50:57;;;;;;;10.85;5.43;;;;;;;;;;4372760;32;316851;-88
2023/07/07 03:53:24;;;;;;;7.00;5.47;;;;;;;;;;4383482;32;317765;-88
2023/07/07 03:55:51;;;;;;;12.70;5.05;;;;;;;;;;4358344;32;317204;-88
2023/07/07 03:58:18;;;;;;;9.05;5.90;;;;;;;;;;4383305;32;317933;-88
2023/07/07 04:00:48;;;;;;;10.15;4.68;;;;;;;;;;4383473;32;316644;-88
2023/07/07 04:03:16;;;;;;;9.18;4.87;;;;;;;;;;4371903;32;331402;-87
2023/07/07 04:05:43;;;;;;;13.30;5.32;;;;;;;;;;4381910;32;316948;-86
2023/07/07 04:08:10;;;;;;;7.80;4.68;;;;;;;;;;4371767;32;318444;-89
2023/07/07 04:10:37;;;;;;;8.23;5.05;;;;;;;;;;4381957;32;317053;-87
2023/07/07 04:13:04;;;;;;;13.45;5.55;;;;;;;;;;4372187;32;317307;-87
2023/07/07 04:15:33;;;;;;;9.45;4.57;;;;;;;;;;4368249;32;318395;-87
2023/07/07 04:18:01;;;;;;;7.05;5.40;;;;;;;;;;4372152;32;356480;-84
2023/07/07 04:20:28;;;;;;;6.65;4.90;;;;;;;;;;4382189;32;317901;-90
2023/07/07 04:22:55;;;;;;;7.20;4.95;;;;;;;;;;4372020;32;317207;-85
2023/07/07 04:25:22;;;;;;;10.73;5.20;;;;;;;;;;4382691;32;317191;-85
2023/07/07 04:27:48;;;;;;;11.35;5.10;;;;;;;;;;4382898;32;318128;-85
2023/07/07 04:30:15;;;;;;;7.53;5.45;;;;;;;;;;4373040;32;318196;-85
2023/07/07 04:32:42;;;;;;;10.10;5.80;;;;;;;;;;4383077;32;317199;-86
2023/07/07 04:35:11;;;;;;;14.60;5.45;;;;;;;;;;4373073;32;318411;-85
2023/07/07 04:37:38;;;;;;;7.75;5.65;;;;;;;;;;4382082;32;338614;-85
2023/07/07 04:40:07;;;;;;;14.27;6.43;;;;;;;;;;4364349;32;316992;-88
2023/07/07 04:42:34;;;;;;;14.65;7.32;;;;;;;;;;4382114;32;317723;-85
2023/07/07 04:45:01;;;;;;;10.82;6.62;;;;;;;;;;4371013;32;346083;-85
2023/07/07 04:47:27;;;;;;;10.82;6.72;;;;;;;;;;4382745;32;318984;-85
2023/07/07 04:49:54;;;;;;;10.68;6.87;;;;;;;;;;4372098;32;318368;-86
2023/07/07 04:52:22;;;;;;;14.10;6.30;;;;;;;;;;4380002;32;318448;-86
2023/07/07 04:54:49;;;;;;;8.07;5.97;;;;;;;;;;4381645;32;318390;-86
2023/07/07 04:57:16;;;;;;;9.60;6.20;;;;;;;;;;4368517;32;417840;-86
2023/07/07 04:59:43;;;;;;;13.77;7.25;;;;;;;;;;4367341;32;316581;-86
2023/07/07 05:02:10;;;;;;;12.20;5.85;;;;;;;;;;4363075;32;318645;-84
2023/07/07 05:04:36;;;;;;;14.13;6.22;;;;;;;;;;4382024;32;318806;-85
2023/07/07 05:07:03;;;;;;;11.88;6.57;;;;;;;;;;4372457;32;318254;-85
2023/07/07 05:09:32;;;;;;;12.27;6.37;;;;;;;;;;4382915;32;318658;-85
2023/07/07 05:11:58;;;;;;;9.23;6.07;;;;;;;;;;4371420;32;335874;-85
2023/07/07 05:14:25;;;;;;;13.43;6.15;;;;;;;;;;4382420;32;316877;-85
2023/07/07 05:16:53;;;;;;;8.45;5.82;;;;;;;;;;4371225;32;318288;-86
2023/07/07 05:19:20;;;;;;;7.40;6.35;;;;;;;;;;4382419;32;316862;-85
2023/07/07 05:21:47;;;;;;;14.23;6.90;;;;;;;;;;4381017;32;316701;-86
2023/07/07 05:24:13;;;;;;;8.23;6.32;;;;;;;;;;4372207;32;318495;-85
2023/07/07 05:26:42;;;;;;;13.32;7.30;;;;;;;;;;4381811;32;317274;-85
2023/07/07 05:29:08;;;;;;;11.70;7.68;;;;;;;;;;4372277;32;318356;-85
2023/07/07 05:31:35;;;;;;;12.90;7.90;;;;;;;;;;4380410;32;317528;-86
2023/07/07 05:34:02;;;;;;;12.93;7.10;;;;;;;;;;4372381;32;318213;-84
2023/07/07 05:36:29;;;;;;;8.20;7.22;;;;;;;;;;4379719;32;318592;-84
2023/07/07 05:38:56;;;;;;;11.80;6.87;;;;;;;;;;4369562;32;317331;-86
2023/07/07 05:41:22;;;;;;;14.48;6.87;;;;;;;;;;4379989;32;317838;-87
2023/07/07 05:43:52;;;;;;;18.45;7.87;;;;;;;;;;4380734;32;317938;-88
2023/07/07 05:46:19;;;;;;;12.20;7.15;;;;;;;;;;4367844;32;417518;-85
2023/07/07 05:48:46;;;;;;;10.80;7.68;;;;;;;;;;4378674;32;318844;-85
2023/07/07 05:51:15;;;;;;;9.80;7.72;;;;;;;;;;4369754;32;318191;-85
2023/07/07 05:53:43;;;;;;;20.42;9.70;;;;;;;;;;4380205;32;316838;-85
2023/07/07 05:56:13;;;;;;;17.05;9.65;;;;;;;;;;4371204;32;318875;-85
2023/07/07 05:58:41;;;;;;;12.80;8.02;;;;;;;;;;4379433;32;318500;-84
2023/07/07 06:01:13;;;;;;;11.35;8.57;;;;;;;;;;4368989;32;318483;-85
2023/07/07 06:03:40;;;;;;;21.45;7.57;;;;;;;;;;4380292;32;318611;-85
2023/07/07 06:06:08;;;;;;;15.25;8.13;;;;;;;;;;4368580;32;318545;-87
2023/07/07 06:08:34;;;;;;;20.83;8.57;;;;;;;;;;4379635;32;318206;-85
2023/07/07 06:11:01;;;;;;;24.55;10.27;;;;;;;;;;4369080;32;318755;-87
2023/07/07 06:13:28;;;;;;;10.65;7.65;;;;;;;;;;4379115;32;319838;-87
2023/07/07 06:15:55;;;;;;;11.57;8.25;;;;;;;;;;4369249;32;318916;-86
2023/07/07 06:18:23;;;;;;;14.73;9.15;;;;;;;;;;4379524;32;318348;-78
2023/07/07 06:20:51;;;;;;;14.25;9.70;;;;;;;;;;4378951;32;318664;-78
2023/07/07 06:23:18;;;;;;;19.10;8.93;;;;;;;;;;4381327;32;417212;-78
2023/07/07 06:25:44;;;;;;;9.23;8.13;;;;;;;;;;4395300;32;318766;-82
2023/07/07 06:28:11;;;;;;;11.55;8.15;;;;;;;;;;4384645;32;317515;-77
2023/07/07 06:30:38;;;;;;;14.60;9.73;;;;;;;;;;4393205;32;349686;-78
2023/07/07 06:33:05;;;;;;;15.00;9.23;;;;;;;;;;4383320;32;339463;-78
2023/07/07 06:35:33;;;;;;;12.75;9.27;;;;;;;;;;4393397;32;318747;-77
2023/07/07 06:38:00;;;;;;;12.10;9.90;;;;;;;;;;4382974;32;318016;-77
2023/07/07 06:40:29;;;;;;;13.88;8.57;;;;;;;;;;4394547;32;318281;-77
2023/07/07 06:42:58;;;;;;;17.77;9.45;;;;;;;;;;4370241;32;342035;-77
2023/07/07 06:45:24;;;;;;;14.50;10.15;;;;;;;;;;4394092;32;318678;-77
2023/07/07 06:47:51;;;;;;;13.05;9.43;;;;;;;;;;4383762;32;319590;-79
2023/07/07 06:50:24;;;;;;;10.18;9.10;;;;;;;;;;4394408;32;318292;-77
2023/07/07 06:52:53;;;;;;;13.68;9.45;;;;;;;;;;4389423;32;318609;-79
2023/07/07 06:55:20;;;;;;;11.20;8.95;;;;;;;;;;4391294;32;318668;-77
2023/07/07 06:57:47;;;;;;;13.82;9.50;;;;;;;;;;4380569;32;318157;-77
2023/07/07 07:00:15;;;;;;;14.68;11.18;;;;;;;;;;4369552;32;318475;-77
2023/07/07 07:02:42;;;;;;;12.57;10.45;;;;;;;;;;4379642;32;318928;-77
2023/07/07 07:05:09;;;;;;;11.85;10.50;;;;;;;;;;4367896;32;359810;-79
2023/07/07 07:07:36;;;;;;;11.77;9.90;;;;;;;;;;4379163;32;330991;-79
2023/07/07 07:10:05;;;;;;;19.02;10.75;;;;;;;;;;4370595;32;318486;-80
2023/07/07 07:12:32;;;;;;;12.20;10.75;;;;;;;;;;4374790;32;319261;-79
2023/07/07 07:14:59;;;;;;;14.95;11.52;;;;;;;;;;4356198;32;319479;-79
2023/07/07 07:17:26;;;;;;;20.02;11.27;;;;;;;;;;4365844;32;319410;-79
2023/07/07 07:19:53;;;;;;;14.18;11.25;;;;;;;;;;4357857;32;319626;-79
2023/07/07 07:22:20;;;;;;;15.40;10.10;;;;;;;;;;4397447;32;319205;-79
2023/07/07 07:24:47;;;;;;;19.25;10.20;;;;;;;;;;4396889;32;319332;-79
2023/07/07 07:27:15;;;;;;;13.55;9.85;;;;;;;;;;4386925;32;357623;-79
2023/07/07 07:29:43;;;;;;;13.82;11.25;;;;;;;;;;4396485;32;352256;-79
2023/07/07 07:32:10;;;;;;;13.60;10.50;;;;;;;;;;4388742;32;319825;-79
2023/07/07 07:34:36;;;;;;;12.80;10.90;;;;;;;;;;4398780;32;319393;-79
2023/07/07 07:37:05;;;;;;;15.85;10.80;;;;;;;;;;4387458;32;319277;-79
2023/07/07 07:39:32;;;;;;;10.93;9.82;;;;;;;;;;4398464;32;319342;-80
2023/07/07 07:41:59;;;;;;;14.50;10.27;;;;;;;;;;4388848;32;318019;-79
2023/07/07 07:44:27;;;;;;;10.80;9.70;;;;;;;;;;4398310;32;319401;-79
2023/07/07 07:46:56;;;;;;;12.18;8.95;;;;;;;;;;4388504;32;318384;-79
2023/07/07 07:49:23;;;;;;;11.40;9.75;;;;;;;;;;4397410;32;318300;-79
2023/07/07 07:51:50;;;;;;;16.50;9.32;;;;;;;;;;4391556;32;318170;-79
2023/07/07 07:54:18;;;;;;;10.65;9.63;;;;;;;;;;4369211;32;418695;-79
2023/07/07 07:56:45;;;;;;;11.05;9.43;;;;;;;;;;4383243;32;318383;-78
2023/07/07 07:59:12;;;;;;;11.70;9.30;;;;;;;;;;4372395;32;318378;-79
2023/07/07 08:01:40;;;;;;;16.90;9.82;;;;;;;;;;4383343;32;318593;-79
2023/07/07 08:04:07;;;;;;;14.60;10.10;;;;;;;;;;4372199;32;318294;-79
2023/07/07 08:06:34;;;;;;;10.75;8.43;;;;;;;;;;4381760;32;319845;-79
2023/07/07 08:09:01;;;;;;;11.63;8.32;;;;;;;;;;4372023;32;318615;-79
2023/07/07 08:12:01;;;;;;;13.38;8.70;;;;;;;;;;4382221;32;317772;-79
2023/07/07 08:14:32;;;;;;;12.68;7.68;;;;;;;;;;4353981;32;418438;-79
2023/07/07 08:17:06;;;;;;;9.85;7.85;;;;;;;;;;4356988;32;357226;-81
2023/07/07 08:19:35;;;;;;;15.55;7.62;;;;;;;;;;4368122;32;316512;-79
2023/07/07 08:22:05;;;;;;;8.45;7.53;;;;;;;;;;4357730;32;330532;-78
2023/07/07 08:24:37;;;;;;;10.27;7.10;;;;;;;;;;4367339;32;317071;-78
2023/07/07 08:27:04;;;;;;;10.43;7.50;;;;;;;;;;4358155;32;318077;-81
2023/07/07 08:29:31;;;;;;;12.13;7.75;;;;;;;;;;4367858;32;318322;-79
2023/07/07 08:31:57;;;;;;;9.25;8.25;;;;;;;;;;4357963;32;318459;-79
2023/07/07 08:34:26;;;;;;;8.65;7.75;;;;;;;;;;4366603;32;317994;-78
2023/07/07 08:36:54;;;;;;;7.87;6.68;;;;;;;;;;4357837;32;317593;-81
2023/07/07 08:39:22;;;;;;;7.87;7.03;;;;;;;;;;4368898;32;316686;-77
2023/07/07 08:41:59;;;;;;;13.27;7.35;;;;;;;;;;4369893;32;316728;-78
2023/07/07 08:44:28;;;;;;;8.55;6.45;;;;;;;;;;4355223;32;415752;-78
2023/07/07 08:47:17;;;;;;;14.93;7.43;;;;;;;;;;4357746;32;317414;-79
2023/07/07 08:49:52;;;;;;;10.73;7.68;;;;;;;;;;4367795;32;318182;-80
2023/07/07 08:52:30;;;;;;;11.38;6.75;;;;;;;;;;4354723;32;419065;-78
2023/07/07 08:55:06;;;;;;;8.68;6.82;;;;;;;;;;4322388;32;318040;-78
2023/07/07 08:57:49;;;;;;;8.23;7.25;;;;;;;;;;4344027;32;317219;-79
2023/07/07 09:00:24;;;;;;;7.60;6.80;;;;;;;;;;4331411;32;437028;-79
2023/07/07 09:03:08;;;;;;;9.25;6.97;;;;;;;;;;4350058;32;317375;-79
2023/07/07 09:05:49;;;;;;;7.72;6.90;;;;;;;;;;4346850;32;418697;-79
2023/07/07 09:08:26;;;;;;;11.52;7.25;;;;;;;;;;4332602;32;437827;-79
2023/07/07 09:11:02;;;;;;;7.12;6.40;;;;;;;;;;4329663;32;318633;-84
2023/07/07 09:13:32;;;;;;;7.15;5.95;;;;;;;;;;4355632;32;337456;-85
2023/07/07 09:16:10;;;;;;;8.82;6.12;;;;;;;;;;4341956;32;317307;-83
2023/07/07 09:18:40;;;;;;;8.32;6.47;;;;;;;;;;4360039;32;316771;-83
2023/07/07 09:21:19;;;;;;;9.90;6.60;;;;;;;;;;4340949;32;317535;-85
2023/07/07 09:23:47;;;;;;;12.05;5.80;;;;;;;;;;4347973;32;316815;-83
2023/07/07 09:26:21;;;;;;;11.05;7.07;;;;;;;;;;4333634;32;318382;-83
2023/07/07 09:28:53;;;;;;;7.40;5.87;;;;;;;;;;4333605;32;337517;-83
2023/07/07 09:31:29;;;;;;;7.80;6.37;;;;;;;;;;4333537;32;418126;-84
2023/07/07 09:33:59;;;;;;;7.80;6.15;;;;;;;;;;4327850;32;317521;-83
2023/07/07 09:36:32;;;;;;;7.30;6.18;;;;;;;;;;4347448;32;317532;-83
2023/07/07 09:39:13;;;;;;;9.25;6.12;;;;;;;;;;4327829;32;320653;-83
2023/07/07 09:41:54;;;;;;;7.62;6.00;;;;;;;;;;4346738;32;317345;-85
2023/07/07 09:44:46;;;;;;;8.98;6.90;;;;;;;;;;4325629;32;436595;-83
2023/07/07 09:47:22;;;;;;;8.85;6.00;;;;;;;;;;4339666;32;417836;-82
2023/07/07 09:49:57;;;;;;;7.05;6.35;;;;;;;;;;4351402;32;317813;-85
2023/07/07 09:52:37;;;;;;;9.65;5.95;;;;;;;;;;4349228;32;419380;-81
2023/07/07 09:55:13;;;;;;;8.10;6.93;;;;;;;;;;4338496;32;330052;-80
2023/07/07 09:57:46;;;;;;;13.65;12.27;;;;;;;;;;4359496;32;317075;-81
2023/07/07 10:00:17;;;;;;;12.07;7.60;;;;;;;;;;4321376;32;419545;-81
2023/07/07 10:02:45;;;;;;;18.87;10.95;;;;;;;;;;4349377;32;318341;-81
2023/07/07 10:05:17;;;;;;;10.00;6.72;;;;;;;;;;4348248;32;319453;-81
2023/07/07 10:07:45;;;;;;;13.27;9.60;;;;;;;;;;4348259;32;317753;-83
2023/07/07 10:10:14;;;;;;;12.00;7.43;;;;;;;;;;4349267;32;318395;-82
2023/07/07 10:12:41;;;;;;;13.18;9.90;;;;;;;;;;4359969;32;318007;-83
2023/07/07 10:15:31;;;;;;;136.80;95.95;;;;;;;;;;4340235;32;318221;-82
2023/07/07 10:18:05;;;;;;;216.37;132.87;;;;;;;;;;4338941;32;328583;-80
2023/07/07 10:20:32;;;;;;;186.25;132.63;;;;;;;;;;4358135;32;321686;-77
2023/07/07 10:23:00;;;;;;;22.25;15.75;;;;;;;;;;4337973;32;321610;-80
2023/07/07 10:25:27;;;;;;;15.35;11.35;;;;;;;;;;4358051;32;319622;-77
2023/07/07 10:27:55;;;;;;;79.72;52.72;;;;;;;;;;4349309;32;319688;-77
2023/07/07 10:30:22;;;;;;;35.40;26.07;;;;;;;;;;4324801;32;437954;-77
2023/07/07 10:32:49;;;;;;;77.80;53.03;;;;;;;;;;4351574;32;449356;-77
2023/07/07 10:35:19;;;;;;;19.85;12.02;;;;;;;;;;4328516;32;443775;-79
2023/07/07 10:37:46;;;;;;;15.30;11.93;;;;;;;;;;4352958;32;438190;-77
2023/07/07 10:40:21;;;;;;;13.57;10.98;;;;;;;;;;4336790;32;438264;-78
2023/07/07 10:42:51;;;;;;;14.30;11.25;;;;;;;;;;4356729;32;436209;-80
2023/07/07 10:45:18;;;;;;;16.23;9.70;;;;;;;;;;4331930;32;435035;-77
2023/07/07 10:47:44;;;;;;;13.10;10.68;;;;;;;;;;4338179;32;443366;-78
2023/07/07 10:50:15;;;;;;;25.58;17.35;;;;;;;;;;4328353;32;445803;-77
2023/07/07 10:53:08;;;;;;;24.58;21.75;;;;;;;;;;4356595;32;433474;-77
2023/07/07 10:55:46;;;;;;;17.10;15.32;;;;;;;;;;4332025;32;438747;-77
2023/07/07 10:58:21;;;;;;;14.48;11.50;;;;;;;;;;4332808;32;440973;-77
2023/07/07 11:01:00;;;;;;;19.42;16.17;;;;;;;;;;4354378;32;441511;-77
2023/07/07 11:04:08;;;;;;;8.90;7.18;;;;;;;;;;4333756;32;439497;-77
2023/07/07 11:06:40;;;;;;;8.80;7.15;;;;;;;;;;4311161;32;445233;-77
2023/07/07 11:09:29;;;;;;;11.70;8.30;;;;;;;;;;4336173;32;439254;-79
2023/07/07 11:12:06;;;;;;;10.30;8.35;;;;;;;;;;4357109;32;440233;-77
2023/07/07 11:14:48;;;;;;;8.27;7.35;;;;;;;;;;4315984;32;438733;-77
2023/07/07 11:17:30;;;;;;;8.73;7.23;;;;;;;;;;4319128;32;445469;-77
2023/07/07 11:20:13;;;;;;;12.02;7.45;;;;;;;;;;4342410;32;433086;-79
2023/07/07 11:22:59;;;;;;;10.98;7.85;;;;;;;;;;4331273;32;436951;-77
2023/07/07 11:25:30;;;;;;;14.05;8.27;;;;;;;;;;4357854;32;318377;-77
2023/07/07 11:28:06;;;;;;;10.50;8.13;;;;;;;;;;4368584;32;318443;-77
2023/07/07 11:30:41;;;;;;;10.45;8.65;;;;;;;;;;4343051;32;420031;-77
2023/07/07 11:33:23;;;;;;;9.55;8.15;;;;;;;;;;4357861;32;318505;-78
2023/07/07 11:35:57;;;;;;;10.55;8.20;;;;;;;;;;4372096;32;316779;-78
2023/07/07 11:38:47;;;;;;;10.40;9.10;;;;;;;;;;4370607;32;318383;-78
2023/07/07 11:41:24;;;;;;;12.03;9.13;;;;;;;;;;4370805;32;356840;-78
2023/07/07 11:44:24;;;;;;;10.38;8.55;;;;;;;;;;4382449;32;318473;-78
2023/07/07 11:47:04;;;;;;;9.43;8.43;;;;;;;;;;4353423;32;418760;-78
2023/07/07 11:49:55;;;;;;;14.35;9.35;;;;;;;;;;4368238;32;417448;-78
2023/07/07 11:52:38;;;;;;;15.65;8.18;;;;;;;;;;4372558;32;318170;-78
2023/07/07 11:55:39;;;;;;;9.70;8.57;;;;;;;;;;4383424;32;321830;-78
2023/07/07 11:58:17;;;;;;;10.80;8.55;;;;;;;;;;4371345;32;418583;-80
2023/07/07 12:00:52;;;;;;;11.12;8.63;;;;;;;;;;4382137;32;318374;-78
2023/07/07 12:03:43;;;;;;;14.40;8.73;;;;;;;;;;4373552;32;318376;-78
2023/07/07 12:06:18;;;;;;;11.20;8.88;;;;;;;;;;4368277;32;339981;-78
2023/07/07 12:08:59;;;;;;;12.13;7.70;;;;;;;;;;4382935;32;318716;-78
2023/07/07 12:11:28;;;;;;;9.40;8.40;;;;;;;;;;4372242;32;318190;-78
2023/07/07 12:14:06;;;;;;;13.52;8.23;;;;;;;;;;4354375;32;316585;-78
2023/07/07 12:16:39;;;;;;;10.18;8.20;;;;;;;;;;4355184;32;420325;-79
2023/07/07 12:19:16;;;;;;;8.93;8.05;;;;;;;;;;4352478;32;318050;-81
2023/07/07 12:21:48;;;;;;;10.43;7.75;;;;;;;;;;4367556;32;317329;-79
2023/07/07 12:24:23;;;;;;;9.25;8.25;;;;;;;;;;4357564;32;318041;-78
2023/07/07 12:27:00;;;;;;;9.20;8.18;;;;;;;;;;4353733;32;317317;-78
2023/07/07 12:29:29;;;;;;;9.52;8.63;;;;;;;;;;4358108;32;317234;-77
2023/07/07 12:31:57;;;;;;;9.35;8.25;;;;;;;;;;4368155;32;317669;-77
2023/07/07 12:34:36;;;;;;;10.95;8.30;;;;;;;;;;4369787;32;317478;-77
2023/07/07 12:37:06;;;;;;;9.13;7.90;;;;;;;;;;4382599;32;318452;-78
2023/07/07 12:39:35;;;;;;;11.43;8.85;;;;;;;;;;4369710;32;416817;-78
2023/07/07 12:42:04;;;;;;;10.05;9.05;;;;;;;;;;4382460;32;318829;-78
2023/07/07 12:44:32;;;;;;;13.50;8.65;;;;;;;;;;4368407;32;418643;-78
2023/07/07 12:47:00;;;;;;;15.23;8.07;;;;;;;;;;4382019;32;337030;-77
2023/07/07 12:49:34;;;;;;;12.37;8.32;;;;;;;;;;4370300;32;356059;-78
2023/07/07 12:52:02;;;;;;;9.48;8.48;;;;;;;;;;4382414;32;318214;-78
2023/07/07 12:54:31;;;;;;;9.18;8.27;;;;;;;;;;4371042;32;317539;-79
2023/07/07 12:57:02;;;;;;;8.52;7.45;;;;;;;;;;4381251;32;317325;-77
2023/07/07 12:59:36;;;;;;;7.47;6.75;;;;;;;;;;4371500;32;317892;-77
2023/07/07 13:02:20;;;;;;;10.02;7.32;;;;;;;;;;4381353;32;317107;-78
2023/07/07 13:05:01;;;;;;;8.40;6.82;;;;;;;;;;4367994;32;417795;-78
2023/07/07 13:07:30;;;;;;;9.82;7.07;;;;;;;;;;4372430;32;316773;-78
2023/07/07 13:09:56;;;;;;;9.57;7.37;;;;;;;;;;4380386;32;336233;-78
2023/07/07 13:12:50;;;;;;;8.48;7.60;;;;;;;;;;4372101;32;317330;-78
2023/07/07 13:15:25;;;;;;;8.52;7.28;;;;;;;;;;4336334;32;317129;-78
2023/07/07 13:17:56;;;;;;;9.32;7.78;;;;;;;;;;4381140;32;316874;-78
2023/07/07 13:20:23;;;;;;;11.60;7.37;;;;;;;;;;4372717;32;317589;-78
2023/07/07 13:22:55;;;;;;;6.93;6.28;;;;;;;;;;4381588;32;318426;-78
2023/07/07 13:25:25;;;;;;;7.30;6.60;;;;;;;;;;4381350;32;317192;-78
2023/07/07 13:27:53;;;;;;;11.32;6.87;;;;;;;;;;4395438;32;317231;-78
2023/07/07 13:30:25;;;;;;;7.75;6.93;;;;;;;;;;4376910;32;319232;-78
2023/07/07 13:32:55;;;;;;;7.28;6.30;;;;;;;;;;4381658;32;317535;-78
2023/07/07 13:35:24;;;;;;;7.80;6.32;;;;;;;;;;4372209;32;317204;-78
2023/07/07 13:37:50;;;;;;;9.65;6.82;;;;;;;;;;4380260;32;344305;-78
2023/07/07 13:40:18;;;;;;;7.90;6.22;;;;;;;;;;4371619;32;317406;-78
2023/07/07 13:42:48;;;;;;;6.75;6.05;;;;;;;;;;4380340;32;316870;-78
2023/07/07 13:45:19;;;;;;;6.82;5.70;;;;;;;;;;4371528;32;316804;-78
2023/07/07 13:47:49;;;;;;;7.15;5.93;;;;;;;;;;4380728;32;317387;-78
2023/07/07 13:50:20;;;;;;;6.75;5.90;;;;;;;;;;4371255;32;336565;-78
2023/07/07 13:52:49;;;;;;;8.75;6.28;;;;;;;;;;4381066;32;317825;-78
2023/07/07 13:55:16;;;;;;;7.75;6.50;;;;;;;;;;4371013;32;317483;-78
2023/07/07 13:57:44;;;;;;;8.20;6.50;;;;;;;;;;4381260;32;317461;-78
2023/07/07 14:00:28;;;;;;;9.65;7.97;;;;;;;;;;4371259;32;317562;-78
2023/07/07 14:02:55;;;;;;;9.57;7.45;;;;;;;;;;4381068;32;317361;-78
2023/07/07 14:05:24;;;;;;;22.95;7.75;;;;;;;;;;4358229;32;317554;-78
2023/07/07 14:07:51;;;;;;;12.02;6.90;;;;;;;;;;4380936;32;318337;-78
2023/07/07 14:10:34;;;;;;;7.97;6.53;;;;;;;;;;4369368;32;318565;-78
2023/07/07 14:13:03;;;;;;;8.05;6.78;;;;;;;;;;4387155;32;317349;-78
2023/07/07 14:15:37;;;;;;;9.90;6.50;;;;;;;;;;4386051;32;317794;-78
2023/07/07 14:18:09;;;;;;;7.80;6.75;;;;;;;;;;4386542;32;317705;-78
2023/07/07 14:20:43;;;;;;;7.03;6.37;;;;;;;;;;4368768;32;416496;-78
2023/07/07 14:23:13;;;;;;;8.45;7.35;;;;;;;;;;4361996;32;317826;-78
2023/07/07 14:25:44;;;;;;;8.18;6.53;;;;;;;;;;4370126;32;317241;-78
2023/07/07 14:28:17;;;;;;;9.10;7.35;;;;;;;;;;4370959;32;317425;-78
2023/07/07 14:30:55;;;;;;;14.23;7.90;;;;;;;;;;4380182;32;317180;-78
2023/07/07 14:33:25;;;;;;;10.75;6.75;;;;;;;;;;4356732;32;318388;-77
2023/07/07 14:36:04;;;;;;;8.05;6.87;;;;;;;;;;4379479;32;318502;-81
2023/07/07 14:38:33;;;;;;;12.50;7.90;;;;;;;;;;4369258;32;414534;-79
2023/07/07 14:41:09;;;;;;;10.38;8.07;;;;;;;;;;4395019;32;317841;-80
2023/07/07 14:43:42;;;;;;;11.35;7.18;;;;;;;;;;4372926;32;416615;-80